Dalrymple, United Kingdom
Current Conditions -  °F | °C
As of 5:20 PM on Thursday 30 Oct 2014 (Local Time) from EGPK Reporting Station
Broken Clouds Broken Clouds  
Wind Chill: 57°   Ceiling: 1500
Heat Index: 57°   Visibility: 6mi
Dew Point: 55°   Wind: 7mph
Humidity: 94%   Direction: 140°SE
Pressure: 29.85"   Gusts: NA
Location:  55.4°N, 4.59°W
Report Text: EGPK 301720Z 14006KT 9000 SCT008 BKN015 14/13 Q1011
Loading
Personal Weather Stations






























Interactive Weather Map
Tropical Storm Tracking
New forecast layout! Learn more

10-Day Weather Forecast

Advertisements
Track Severe Weather on mobile